首页
METAR-TAF:

METAR-TAF

机场 :

奥古斯塔, 喬治亞, 美国

纬度: 33-21-52N, 经度: 081-57-48W, 海拔: 44米

当前天气观测

该预报发布于1小时和1分钟前的15:53 UTC
风速4节,风向东北
温度 30°C
湿度 59%
气压 1019 hPa
能見度: 16.1公里
天空无云

METAR: KAGS 231553Z 05004KT 10SM CLR 30/21 A3009 RMK AO2 SLP187 T03000211 $

时间: 12:54 (16:54 UTC)

预报

该预报发布于1小时和44分钟前的15:10 UTC
预报有效从23日的 15点(UTC)到 24日的 12点(UTC)
风速4节,风向多变
能見度: 10公里
天空无云
从 23日的 1700点(UTC)
风速8节,风向
能見度: 10公里
散云层高于4000英尺
从 24日的 0000点(UTC)
风速3节,风向多变
能見度: 10公里
天空无云

TAF: KAGS 231510Z 2315/2412 VRB04KT P6SM SKC FM231700 09008KT P6SM SCT040 FM240000 VRB03KT P6SM SKC

超过4000个机场的气象观测和天气预报(METAR&TAF报告)。

可查询的气象台以黄色和红色小点在地图上表示。

将鼠标移到小点上方,可查看气象台名称。

然后点击查看天气观测和预报。

如需切换地图:点击带黑十字的绿色按钮放大地图;点击带横线的绿色按钮缩小地图;或者点击绿色箭头查看邻近地区的地图。


METAR-TAF: